createdAt,value
2018-08-10T00:01:58.676Z,2.07
2018-08-10T00:04:28.324Z,1.60
2018-08-10T00:06:58.032Z,1.60
2018-08-10T00:09:27.813Z,1.70
2018-08-10T00:11:57.508Z,1.40
2018-08-10T00:14:27.061Z,1.57
2018-08-10T00:16:56.585Z,1.70
2018-08-10T00:19:26.178Z,1.50
2018-08-10T00:21:55.953Z,1.50
2018-08-10T00:24:25.509Z,2.00
2018-08-10T00:26:55.141Z,1.57
2018-08-10T00:29:24.726Z,1.90
2018-08-10T00:31:54.399Z,2.03
2018-08-10T00:34:24.073Z,2.10
2018-08-10T00:36:53.696Z,2.47
2018-08-10T00:39:23.325Z,2.33
2018-08-10T00:41:52.834Z,2.10
2018-08-10T00:44:22.770Z,2.73
2018-08-10T00:46:52.258Z,3.10
2018-08-10T00:49:21.846Z,2.90
2018-08-10T00:51:51.490Z,3.50
2018-08-10T00:54:21.114Z,3.10
2018-08-10T00:56:50.727Z,4.10
2018-08-10T00:59:25.360Z,3.40
2018-08-10T01:01:59.818Z,3.40
2018-08-10T01:04:34.050Z,3.37
2018-08-10T01:07:08.069Z,3.27
2018-08-10T01:09:40.992Z,3.57
2018-08-10T01:12:15.421Z,3.37
2018-08-10T01:14:49.729Z,3.23
2018-08-10T01:17:24.569Z,3.60
2018-08-10T01:19:59.648Z,3.53
2018-08-10T01:22:33.435Z,3.43
2018-08-10T01:25:07.194Z,3.50
2018-08-10T01:27:45.049Z,4.00
2018-08-10T01:30:18.725Z,3.30
2018-08-10T01:32:53.044Z,3.37
2018-08-10T01:35:26.752Z,3.00
2018-08-10T01:38:01.958Z,2.90
2018-08-10T01:40:35.589Z,3.00
2018-08-10T01:43:09.950Z,2.63
2018-08-10T01:45:44.951Z,3.13
2018-08-10T01:48:19.130Z,3.30
2018-08-10T01:50:51.715Z,3.10
2018-08-10T01:53:25.781Z,3.17
2018-08-10T01:56:00.605Z,3.47
2018-08-10T01:58:30.221Z,3.57
2018-08-10T02:00:59.899Z,3.33
2018-08-10T02:03:29.489Z,3.13
2018-08-10T02:05:59.148Z,3.00
2018-08-10T02:08:28.736Z,3.23
2018-08-10T02:10:58.292Z,2.40
2018-08-10T02:13:27.926Z,2.10
2018-08-10T02:15:57.561Z,1.83
2018-08-10T02:18:27.179Z,1.90
2018-08-10T02:20:56.794Z,1.70
2018-08-10T02:23:26.410Z,1.70
2018-08-10T02:25:55.949Z,1.30
2018-08-10T02:28:25.497Z,1.43
2018-08-10T02:30:55.171Z,1.70
2018-08-10T02:33:24.795Z,1.30
2018-08-10T02:35:54.383Z,1.30
2018-08-10T02:38:23.989Z,1.10
2018-08-10T02:40:53.655Z,1.20
2018-08-10T02:43:23.196Z,1.23
2018-08-10T02:45:52.779Z,1.00
2018-08-10T02:48:22.374Z,0.87
2018-08-10T02:50:52.013Z,0.70
2018-08-10T02:53:21.601Z,0.80
2018-08-10T02:55:51.202Z,0.60
2018-08-10T02:58:20.733Z,0.70
2018-08-10T03:00:50.895Z,0.70
2018-08-10T03:03:20.363Z,0.70
2018-08-10T03:05:50.029Z,0.70
2018-08-10T03:08:19.683Z,0.60
2018-08-10T03:10:49.298Z,0.60
2018-08-10T03:13:18.897Z,0.67
2018-08-10T03:15:48.616Z,0.80
2018-08-10T03:18:18.326Z,0.70
2018-08-10T03:20:47.862Z,0.50
2018-08-10T03:23:17.634Z,0.80
2018-08-10T03:25:47.243Z,0.73
2018-08-10T03:28:16.741Z,1.00
2018-08-10T03:30:46.348Z,0.80
2018-08-10T03:33:15.900Z,0.80
2018-08-10T03:35:45.523Z,0.90
2018-08-10T03:38:15.054Z,1.00
2018-08-10T03:40:44.602Z,0.77
2018-08-10T03:43:14.168Z,0.90
2018-08-10T03:45:43.890Z,0.70
2018-08-10T03:48:13.412Z,1.20
2018-08-10T03:50:42.941Z,0.80
2018-08-10T03:53:12.506Z,0.90
2018-08-10T03:55:42.091Z,1.00
2018-08-10T03:58:11.805Z,0.97
2018-08-10T04:00:41.286Z,0.90
2018-08-10T04:03:10.862Z,1.10
2018-08-10T04:05:40.432Z,1.30
2018-08-10T04:08:09.945Z,1.10
2018-08-10T04:10:39.582Z,0.90
2018-08-10T04:13:09.379Z,1.10
2018-08-10T04:15:38.940Z,1.43
2018-08-10T04:18:08.406Z,1.10
2018-08-10T04:20:37.999Z,1.10
2018-08-10T04:23:07.614Z,1.30
2018-08-10T04:25:37.113Z,1.40
2018-08-10T04:28:06.827Z,1.40
2018-08-10T04:30:36.318Z,1.60
2018-08-10T04:33:05.897Z,1.60
2018-08-10T04:35:35.338Z,1.90
2018-08-10T04:38:04.775Z,2.47
2018-08-10T04:40:34.354Z,2.50
2018-08-10T04:43:04.199Z,3.47
2018-08-10T04:45:33.690Z,3.10
2018-08-10T04:48:04.208Z,3.73
2018-08-10T04:50:34.169Z,3.00
2018-08-10T04:53:03.658Z,3.13
2018-08-10T04:55:33.136Z,3.27
2018-08-10T04:58:02.672Z,3.13
2018-08-10T05:00:32.211Z,3.27
2018-08-10T05:03:01.666Z,2.80
2018-08-10T05:05:31.082Z,2.87
2018-08-10T05:08:00.549Z,2.83
2018-08-10T05:10:30.103Z,2.53
2018-08-10T05:12:59.576Z,2.60
2018-08-10T05:15:29.065Z,2.20
2018-08-10T05:17:58.490Z,2.33
2018-08-10T05:20:28.000Z,2.13
2018-08-10T05:22:57.440Z,1.77
2018-08-10T05:25:26.881Z,1.60
2018-08-10T05:27:56.321Z,1.87
2018-08-10T05:30:25.795Z,1.80
2018-08-10T05:32:55.217Z,1.50
2018-08-10T05:35:24.688Z,1.20
2018-08-10T05:37:54.151Z,1.50
2018-08-10T05:40:23.664Z,1.60
2018-08-10T05:42:53.075Z,1.40
2018-08-10T05:45:22.493Z,1.60
2018-08-10T05:47:52.015Z,1.40
2018-08-10T05:50:21.446Z,1.37
2018-08-10T05:52:53.651Z,1.10
2018-08-10T05:55:23.068Z,2.10
2018-08-10T05:57:52.519Z,1.47
2018-08-10T06:00:21.947Z,1.33
2018-08-10T06:02:51.415Z,1.30
2018-08-10T06:05:20.904Z,1.40
2018-08-10T06:07:50.317Z,1.47
2018-08-10T06:10:19.772Z,1.70
2018-08-10T06:12:49.170Z,1.27
2018-08-10T06:15:18.610Z,1.40
2018-08-10T06:17:48.033Z,1.30
2018-08-10T06:20:17.756Z,1.30
2018-08-10T06:22:47.268Z,1.17
2018-08-10T06:25:17.175Z,1.20
2018-08-10T06:27:46.680Z,1.10
2018-08-10T06:30:16.092Z,1.40
2018-08-10T06:32:45.811Z,1.30
2018-08-10T06:35:15.283Z,1.40
2018-08-10T06:37:44.840Z,1.70
2018-08-10T06:40:14.317Z,1.53
2018-08-10T06:42:44.083Z,1.27
2018-08-10T06:45:13.621Z,1.10
2018-08-10T06:47:43.085Z,1.33
2018-08-10T06:50:12.562Z,1.20
2018-08-10T06:52:42.024Z,1.23
2018-08-10T06:55:11.465Z,1.40
2018-08-10T06:57:40.820Z,1.30
2018-08-10T07:00:10.317Z,1.57
2018-08-10T07:02:39.777Z,1.57
2018-08-10T07:05:09.678Z,1.20
2018-08-10T07:07:39.196Z,1.30
2018-08-10T07:10:09.486Z,1.23
2018-08-10T07:12:38.906Z,1.60
2018-08-10T07:15:08.312Z,1.97
2018-08-10T07:17:37.760Z,1.33
2018-08-10T07:20:08.164Z,1.50
2018-08-10T07:22:37.804Z,1.20
2018-08-10T07:25:07.793Z,1.40
2018-08-10T07:27:37.176Z,1.33
2018-08-10T07:30:06.794Z,1.30
2018-08-10T07:32:36.202Z,1.50
2018-08-10T07:35:05.685Z,1.53
2018-08-10T07:37:35.124Z,1.50
2018-08-10T07:40:04.613Z,1.67
2018-08-10T07:42:34.077Z,1.87
2018-08-10T07:45:03.505Z,1.47
2018-08-10T07:47:32.901Z,1.30
2018-08-10T07:50:02.384Z,1.70
2018-08-10T07:52:31.810Z,1.30
2018-08-10T07:55:02.298Z,1.60
2018-08-10T07:57:33.253Z,1.53
2018-08-10T08:00:02.665Z,1.50
2018-08-10T08:02:32.196Z,1.40
2018-08-10T08:05:01.885Z,1.40
2018-08-10T08:07:34.374Z,1.70
2018-08-10T08:10:04.906Z,1.43
2018-08-10T08:12:34.774Z,1.30
2018-08-10T08:15:04.377Z,1.40
2018-08-10T08:17:33.938Z,1.20
2018-08-10T08:20:03.804Z,1.60
2018-08-10T08:22:33.721Z,1.50
2018-08-10T08:25:03.312Z,1.30
2018-08-10T08:27:32.835Z,1.60
2018-08-10T08:30:02.818Z,1.20
2018-08-10T08:32:32.283Z,1.40
2018-08-10T08:35:01.929Z,1.20
2018-08-10T08:37:31.384Z,1.30
2018-08-10T08:40:32.702Z,1.50
2018-08-10T08:43:03.222Z,1.23
2018-08-10T08:45:43.874Z,1.20
2018-08-10T08:48:13.452Z,1.20
2018-08-10T08:50:44.332Z,1.10
2018-08-10T08:53:13.816Z,1.70
2018-08-10T08:55:50.133Z,1.60
2018-08-10T08:58:19.716Z,1.40
2018-08-10T09:00:49.264Z,1.57
2018-08-10T09:03:30.988Z,1.20
2018-08-10T09:06:00.951Z,1.20
2018-08-10T09:08:30.445Z,1.03
2018-08-10T09:11:01.111Z,1.20
2018-08-10T09:13:41.725Z,1.40
2018-08-10T09:16:11.288Z,1.50
2018-08-10T09:18:40.891Z,1.20
2018-08-10T09:21:10.595Z,1.20
2018-08-10T09:23:40.513Z,1.30
2018-08-10T09:26:09.968Z,1.40
2018-08-10T09:28:39.639Z,1.17
2018-08-10T09:31:09.076Z,1.43
2018-08-10T09:33:38.515Z,1.60
2018-08-10T09:36:08.285Z,1.50
2018-08-10T09:38:37.834Z,1.53
2018-08-10T09:41:07.353Z,2.00
2018-08-10T09:43:37.096Z,1.70
2018-08-10T09:46:06.619Z,1.70
2018-08-10T09:48:36.003Z,2.10
2018-08-10T09:51:05.420Z,1.77
2018-08-10T09:53:34.888Z,2.23
2018-08-10T09:56:04.331Z,1.83
2018-08-10T09:58:33.798Z,1.90
2018-08-10T10:01:07.485Z,1.80
2018-08-10T10:03:36.953Z,2.00
2018-08-10T10:06:06.668Z,1.80
2018-08-10T10:08:36.119Z,2.10
2018-08-10T10:11:05.621Z,1.90
2018-08-10T10:13:35.084Z,1.90
2018-08-10T10:16:04.567Z,1.83
2018-08-10T10:18:35.268Z,1.70
2018-08-10T10:21:04.858Z,1.70
2018-08-10T10:23:34.258Z,1.50
2018-08-10T10:26:03.726Z,1.60
2018-08-10T10:28:35.962Z,1.50
2018-08-10T10:31:05.462Z,1.40
2018-08-10T10:33:34.886Z,1.50
2018-08-10T10:36:04.493Z,2.00
2018-08-10T10:38:33.927Z,1.50
2018-08-10T10:41:03.759Z,2.00
2018-08-10T10:43:33.274Z,1.80
2018-08-10T10:46:02.850Z,1.50
2018-08-10T10:48:32.472Z,1.97
2018-08-10T10:51:02.136Z,1.67
2018-08-10T10:53:31.613Z,1.90
2018-08-10T10:56:01.159Z,1.70
2018-08-10T10:58:30.676Z,2.00
2018-08-10T11:01:00.210Z,1.50
2018-08-10T11:03:29.753Z,1.87
2018-08-10T11:05:59.233Z,1.70
2018-08-10T11:08:28.753Z,1.73
2018-08-10T11:10:58.286Z,1.90
2018-08-10T11:13:27.822Z,1.90
2018-08-10T11:15:57.605Z,1.80
2018-08-10T11:18:27.192Z,1.90
2018-08-10T11:20:56.782Z,1.57
2018-08-10T11:23:26.322Z,2.20
2018-08-10T11:25:55.927Z,1.43
2018-08-10T11:28:25.470Z,1.63
2018-08-10T11:30:55.000Z,1.90
2018-08-10T11:33:24.445Z,1.87
2018-08-10T11:35:54.279Z,1.63
2018-08-10T11:38:23.863Z,1.87
2018-08-10T11:40:53.439Z,1.83
2018-08-10T11:43:23.041Z,1.80
2018-08-10T11:45:52.519Z,2.30
2018-08-10T11:48:22.002Z,1.67
2018-08-10T11:50:51.471Z,1.77
2018-08-10T11:53:21.075Z,1.97
2018-08-10T11:55:50.800Z,1.90
2018-08-10T11:58:24.096Z,2.00
2018-08-10T12:00:53.802Z,1.47
2018-08-10T12:03:23.243Z,2.07
2018-08-10T12:05:52.867Z,1.90
2018-08-10T12:08:22.352Z,1.77
2018-08-10T12:10:51.801Z,1.77
2018-08-10T12:13:21.268Z,1.63
2018-08-10T12:15:50.829Z,1.90
2018-08-10T12:18:20.368Z,1.70
2018-08-10T12:20:49.834Z,1.80
2018-08-10T12:23:19.839Z,1.37
2018-08-10T12:25:49.328Z,1.77
2018-08-10T12:28:18.787Z,1.40
2018-08-10T12:30:48.351Z,1.80
2018-08-10T12:33:17.833Z,1.73
2018-08-10T12:35:47.593Z,1.50
2018-08-10T12:38:17.018Z,1.57
2018-08-10T12:40:46.552Z,1.57
2018-08-10T12:43:16.197Z,1.50
2018-08-10T12:45:47.471Z,1.60
2018-08-10T12:48:18.276Z,1.70
2018-08-10T12:50:47.871Z,1.40
2018-08-10T12:53:17.327Z,1.50
2018-08-10T12:55:47.968Z,1.60
2018-08-10T12:58:18.467Z,1.80
2018-08-10T13:00:48.259Z,1.90
2018-08-10T13:03:18.928Z,2.03
2018-08-10T13:05:49.654Z,1.63
2018-08-10T13:08:19.538Z,1.70
2018-08-10T13:10:50.844Z,1.97
2018-08-10T13:13:20.830Z,1.97
2018-08-10T13:15:50.352Z,1.97
2018-08-10T13:18:19.947Z,1.80
2018-08-10T13:20:50.316Z,2.13
2018-08-10T13:23:19.795Z,1.70
2018-08-10T13:25:49.321Z,1.83
2018-08-10T13:28:18.729Z,1.77
2018-08-10T13:30:48.712Z,1.63
2018-08-10T13:33:18.146Z,1.63
2018-08-10T13:35:48.632Z,1.50
2018-08-10T13:38:18.147Z,1.80
2018-08-10T13:40:47.615Z,1.73
2018-08-10T13:43:17.733Z,1.60
2018-08-10T13:45:47.218Z,1.43
2018-08-10T13:48:17.581Z,1.40
2018-08-10T13:50:47.450Z,1.27
2018-08-10T13:53:16.957Z,1.23
2018-08-10T13:55:46.350Z,1.60
2018-08-10T13:58:15.876Z,1.10
2018-08-10T14:00:45.278Z,1.53
2018-08-10T14:03:14.736Z,1.60
2018-08-10T14:05:44.174Z,1.30
2018-08-10T14:08:14.132Z,1.20
2018-08-10T14:10:43.623Z,1.97
2018-08-10T14:13:13.119Z,1.43
2018-08-10T14:15:42.516Z,1.47
2018-08-10T14:18:12.041Z,1.10
2018-08-10T14:20:41.477Z,1.27
2018-08-10T14:23:10.971Z,1.33
2018-08-10T14:25:40.388Z,1.40
2018-08-10T14:28:09.869Z,1.20
2018-08-10T14:30:39.363Z,1.50
2018-08-10T14:33:08.807Z,1.47
2018-08-10T14:35:38.292Z,1.10
2018-08-10T14:38:07.817Z,2.03
2018-08-10T14:40:37.307Z,1.20
2018-08-10T14:43:11.523Z,1.27
2018-08-10T14:45:41.417Z,1.30
2018-08-10T14:48:14.457Z,1.30
2018-08-10T14:50:43.956Z,1.10
2018-08-10T14:53:13.389Z,1.10
2018-08-10T14:55:43.114Z,1.00
2018-08-10T14:58:12.761Z,1.13
2018-08-10T15:00:42.753Z,1.20
2018-08-10T15:03:12.189Z,1.20
2018-08-10T15:05:41.660Z,0.93
2018-08-10T15:08:11.197Z,1.20
2018-08-10T15:10:41.159Z,1.07
2018-08-10T15:13:11.116Z,1.20
2018-08-10T15:15:40.520Z,1.30
2018-08-10T15:18:09.999Z,1.20
2018-08-10T15:20:39.460Z,1.20
2018-08-10T15:23:08.944Z,1.10
2018-08-10T15:25:38.411Z,1.20
2018-08-10T15:28:07.897Z,1.10
2018-08-10T15:30:37.852Z,1.30
2018-08-10T15:33:07.302Z,1.07
2018-08-10T15:35:36.788Z,1.10
2018-08-10T15:38:06.677Z,1.23
2018-08-10T15:40:36.159Z,1.13
2018-08-10T15:43:05.602Z,1.30
2018-08-10T15:45:35.110Z,1.30
2018-08-10T15:48:04.639Z,1.20
2018-08-10T15:50:34.183Z,1.10
2018-08-10T15:53:03.653Z,1.27
2018-08-10T15:55:33.080Z,1.10
2018-08-10T15:58:02.595Z,1.00
2018-08-10T16:00:32.030Z,1.10
2018-08-10T16:03:01.537Z,1.00
2018-08-10T16:05:30.992Z,1.13
2018-08-10T16:08:00.480Z,1.13
2018-08-10T16:10:29.909Z,1.03
2018-08-10T16:12:59.357Z,0.93
2018-08-10T16:15:28.831Z,1.10
2018-08-10T16:17:58.324Z,1.20
2018-08-10T16:20:28.181Z,1.40
2018-08-10T16:22:57.544Z,1.40
2018-08-10T16:25:26.950Z,1.40
2018-08-10T16:27:56.389Z,1.07
2018-08-10T16:30:25.852Z,1.30
2018-08-10T16:32:55.296Z,1.10
2018-08-10T16:35:24.744Z,1.00
2018-08-10T16:37:54.214Z,0.90
2018-08-10T16:40:23.715Z,1.00
2018-08-10T16:42:53.404Z,1.40
2018-08-10T16:45:22.886Z,1.20
2018-08-10T16:47:52.542Z,1.03
2018-08-10T16:50:21.976Z,1.20
2018-08-10T16:52:51.394Z,1.20
2018-08-10T16:55:21.091Z,0.90
2018-08-10T16:57:50.842Z,1.27
2018-08-10T17:00:21.563Z,1.13
2018-08-10T17:02:50.989Z,1.27
2018-08-10T17:05:20.423Z,1.30
2018-08-10T17:07:49.896Z,1.10
2018-08-10T17:10:19.308Z,1.20
2018-08-10T17:12:48.755Z,1.00
2018-08-10T17:15:19.327Z,1.20
2018-08-10T17:17:49.216Z,1.30
2018-08-10T17:20:18.916Z,1.20
2018-08-10T17:22:48.342Z,1.00
2018-08-10T17:25:20.033Z,1.00
2018-08-10T17:27:49.454Z,1.17
2018-08-10T17:30:20.040Z,1.60
2018-08-10T17:32:49.500Z,1.20
2018-08-10T17:35:19.084Z,1.20
2018-08-10T17:37:48.504Z,1.03
2018-08-10T17:40:17.936Z,1.10
2018-08-10T17:42:47.413Z,1.37
2018-08-10T17:45:17.766Z,1.30
2018-08-10T17:47:47.267Z,1.50
2018-08-10T17:50:18.751Z,1.00
2018-08-10T17:52:51.512Z,1.20
2018-08-10T17:55:21.347Z,1.37
2018-08-10T17:57:50.773Z,1.10
2018-08-10T18:00:21.935Z,1.33
2018-08-10T18:02:51.545Z,1.27
2018-08-10T18:05:21.020Z,1.47
2018-08-10T18:07:50.502Z,1.30
2018-08-10T18:10:20.400Z,1.10
2018-08-10T18:12:49.896Z,1.47
2018-08-10T18:15:20.420Z,1.20
2018-08-10T18:17:50.032Z,1.07
2018-08-10T18:20:20.780Z,1.10
2018-08-10T18:22:51.508Z,1.10
2018-08-10T18:25:21.994Z,1.13
2018-08-10T18:27:51.406Z,1.03
2018-08-10T18:30:22.906Z,1.03
2018-08-10T18:32:52.436Z,0.97
2018-08-10T18:35:22.279Z,1.37
2018-08-10T18:37:52.184Z,1.50
2018-08-10T18:40:21.795Z,1.30
2018-08-10T18:42:51.904Z,1.07
2018-08-10T18:45:22.001Z,1.10
2018-08-10T18:47:51.723Z,1.20
2018-08-10T18:50:21.590Z,1.20
2018-08-10T18:52:51.092Z,1.20
2018-08-10T18:55:22.279Z,1.30
2018-08-10T18:57:52.091Z,1.33
2018-08-10T19:00:24.365Z,1.30
2018-08-10T19:02:53.993Z,1.30
2018-08-10T19:05:23.503Z,1.60
2018-08-10T19:07:53.366Z,1.40
2018-08-10T19:10:29.213Z,1.70
2018-08-10T19:12:58.667Z,1.30
2018-08-10T19:15:28.202Z,1.17
2018-08-10T19:17:57.950Z,1.30
2018-08-10T19:20:27.429Z,1.10
2018-08-10T19:22:56.933Z,1.50
2018-08-10T19:25:26.427Z,1.30
2018-08-10T19:27:55.828Z,1.47
2018-08-10T19:30:25.687Z,1.50
2018-08-10T19:32:55.572Z,1.80
2018-08-10T19:35:25.048Z,1.57
2018-08-10T19:37:54.489Z,1.50
2018-08-10T19:40:23.928Z,1.60
2018-08-10T19:42:53.339Z,1.30
2018-08-10T19:45:23.072Z,1.33
2018-08-10T19:47:52.783Z,1.37
2018-08-10T19:50:24.113Z,1.37
2018-08-10T19:52:53.921Z,1.40
2018-08-10T19:55:23.390Z,1.57
2018-08-10T19:57:52.876Z,1.40
2018-08-10T20:00:22.326Z,1.20
2018-08-10T20:02:52.030Z,1.43
2018-08-10T20:05:21.528Z,1.30
2018-08-10T20:07:51.023Z,1.27
2018-08-10T20:10:20.582Z,1.33
2018-08-10T20:12:50.263Z,1.43
2018-08-10T20:15:19.832Z,1.23
2018-08-10T20:17:49.635Z,1.60
2018-08-10T20:20:19.652Z,1.47
2018-08-10T20:22:49.097Z,1.60
2018-08-10T20:25:19.057Z,1.60
2018-08-10T20:27:48.524Z,1.70
2018-08-10T20:30:20.507Z,1.37
2018-08-10T20:32:49.954Z,1.50
2018-08-10T20:35:20.221Z,1.50
2018-08-10T20:37:49.698Z,1.40
2018-08-10T20:40:20.178Z,1.50
2018-08-10T20:42:49.989Z,1.70
2018-08-10T20:45:20.178Z,1.50
2018-08-10T20:47:49.703Z,1.40
2018-08-10T20:50:20.995Z,1.63
2018-08-10T20:52:50.575Z,1.50
2018-08-10T20:55:20.145Z,1.30
2018-08-10T20:57:49.927Z,1.47
2018-08-10T21:00:19.407Z,1.23
2018-08-10T21:02:48.976Z,1.50
2018-08-10T21:05:18.381Z,1.40
2018-08-10T21:07:47.857Z,1.53
2018-08-10T21:10:17.677Z,1.40
2018-08-10T21:12:47.602Z,1.57
2018-08-10T21:15:17.252Z,1.30
2018-08-10T21:17:47.255Z,1.40
2018-08-10T21:20:17.883Z,1.33
2018-08-10T21:22:47.384Z,1.30
2018-08-10T21:25:16.815Z,1.30
2018-08-10T21:27:46.240Z,1.90
2018-08-10T21:30:17.977Z,1.50
2018-08-10T21:32:47.966Z,1.33
2018-08-10T21:35:17.419Z,1.20
2018-08-10T21:37:46.924Z,1.60
2018-08-10T21:40:16.372Z,1.20
2018-08-10T21:42:46.289Z,1.33
2018-08-10T21:45:15.664Z,1.37
2018-08-10T21:47:45.109Z,1.40
2018-08-10T21:50:15.308Z,1.20
2018-08-10T21:52:45.394Z,1.60
2018-08-10T21:55:14.952Z,1.20
2018-08-10T21:57:44.818Z,1.20
2018-08-10T22:00:54.200Z,1.23
2018-08-10T22:03:25.202Z,1.50
2018-08-10T22:05:55.925Z,1.30
2018-08-10T22:08:26.160Z,1.40
2018-08-10T22:10:55.646Z,1.50
2018-08-10T22:13:30.339Z,1.57
2018-08-10T22:16:04.976Z,1.40
2018-08-10T22:18:39.583Z,1.50
2018-08-10T22:21:08.978Z,1.40
2018-08-10T22:23:38.440Z,1.40
2018-08-10T22:26:07.948Z,1.27
2018-08-10T22:28:37.427Z,1.60
2018-08-10T22:31:07.207Z,1.20
2018-08-10T22:33:36.731Z,1.50
2018-08-10T22:36:06.194Z,1.63
2018-08-10T22:38:35.649Z,1.53
2018-08-10T22:41:05.111Z,1.20
2018-08-10T22:43:34.562Z,1.40
2018-08-10T22:46:04.371Z,1.37
2018-08-10T22:48:33.816Z,1.40
2018-08-10T22:51:03.313Z,1.40
2018-08-10T22:53:32.763Z,1.40
2018-08-10T22:56:03.505Z,1.60
2018-08-10T22:58:33.034Z,1.60
2018-08-10T23:01:02.802Z,1.30
2018-08-10T23:03:32.492Z,1.90
2018-08-10T23:06:02.505Z,1.50
2018-08-10T23:08:32.500Z,1.83
2018-08-10T23:11:02.059Z,1.43
2018-08-10T23:13:31.564Z,1.50
2018-08-10T23:16:01.083Z,1.30
2018-08-10T23:18:30.526Z,1.47
2018-08-10T23:21:01.027Z,1.30
2018-08-10T23:23:30.489Z,1.27
2018-08-10T23:26:01.325Z,1.60
2018-08-10T23:28:31.268Z,1.60
2018-08-10T23:31:00.917Z,1.23
2018-08-10T23:33:30.372Z,1.20
2018-08-10T23:35:59.774Z,1.20
2018-08-10T23:38:29.205Z,1.10
2018-08-10T23:40:58.621Z,1.50
2018-08-10T23:43:28.009Z,1.30
2018-08-10T23:45:57.465Z,1.20
2018-08-10T23:48:26.943Z,1.20
2018-08-10T23:50:56.413Z,1.20
2018-08-10T23:53:25.894Z,1.30
2018-08-10T23:55:55.374Z,1.27
2018-08-10T23:58:24.830Z,1.40
